Time;durP1;ratioP1;P1;durP2;ratioP2;P2;SDS_P1;SDS_P2;PMS_P1;PMS_P2;Temp;Humidity;BMP_temperature;BMP_pressure;BME280_temperature;BME280_humidity;BME280_pressure;Samples;Min_cycle;Max_cycle;Signal;HPM_P1;HPM_P2
2023/01/04 00:00:15;;;;;;;6.25;0.60;;;;;;;;;;5284285;28;20032;-74
2023/01/04 00:02:46;;;;;;;2.83;0.50;;;;;;;;;;5284548;28;20114;-74
2023/01/04 00:05:17;;;;;;;4.70;0.75;;;;;;;;;;5285223;28;20028;-74
2023/01/04 00:07:49;;;;;;;4.95;0.73;;;;;;;;;;5283835;28;20012;-74
2023/01/04 00:10:20;;;;;;;3.48;0.56;;;;;;;;;;5284700;28;20033;-74
2023/01/04 00:12:51;;;;;;;3.22;0.70;;;;;;;;;;5284416;28;20017;-74
2023/01/04 00:15:22;;;;;;;5.22;0.82;;;;;;;;;;5283660;28;20537;-75
2023/01/04 00:17:54;;;;;;;6.50;0.70;;;;;;;;;;5284639;28;20048;-73
2023/01/04 00:20:25;;;;;;;3.47;0.50;;;;;;;;;;5284602;28;20035;-74
2023/01/04 00:22:56;;;;;;;4.38;0.70;;;;;;;;;;5283271;28;20016;-74
2023/01/04 00:25:28;;;;;;;6.72;0.60;;;;;;;;;;5284385;28;20075;-74
2023/01/04 00:27:59;;;;;;;4.82;0.57;;;;;;;;;;5283424;28;20021;-74
2023/01/04 00:30:30;;;;;;;4.46;0.62;;;;;;;;;;5284369;28;20043;-74
2023/01/04 00:33:01;;;;;;;5.07;0.70;;;;;;;;;;5283532;28;20046;-74
2023/01/04 00:35:32;;;;;;;3.72;0.63;;;;;;;;;;5283408;28;20024;-74
2023/01/04 00:38:04;;;;;;;4.65;0.80;;;;;;;;;;5283893;28;20020;-75
2023/01/04 00:40:35;;;;;;;6.28;0.90;;;;;;;;;;5283827;28;20020;-75
2023/01/04 00:43:06;;;;;;;3.83;0.63;;;;;;;;;;5283450;28;20415;-75
2023/01/04 00:45:37;;;;;;;4.00;0.80;;;;;;;;;;5284211;28;20047;-75
2023/01/04 00:48:08;;;;;;;5.07;0.50;;;;;;;;;;5283713;28;20032;-75
2023/01/04 00:50:39;;;;;;;3.88;0.70;;;;;;;;;;5282663;28;20442;-74
2023/01/04 00:53:11;;;;;;;3.90;0.82;;;;;;;;;;5283840;28;20020;-74
2023/01/04 00:55:42;;;;;;;3.80;0.60;;;;;;;;;;5283474;28;20062;-74
2023/01/04 00:58:13;;;;;;;2.85;0.40;;;;;;;;;;5283212;28;20074;-74
2023/01/04 01:00:45;;;;;;;3.95;0.60;;;;;;;;;;5283445;28;20020;-74
2023/01/04 01:03:16;;;;;;;4.70;0.52;;;;;;;;;;5283076;28;20025;-75
2023/01/04 01:05:47;;;;;;;3.95;0.60;;;;;;;;;;5283367;28;20530;-75
2023/01/04 01:08:24;;;;;;;2.50;0.40;;;;;;;;;;5283882;28;20445;-74
2023/01/04 01:11:01;;;;;;;5.72;1.00;;;;;;;;;;5282619;28;20035;-74
2023/01/04 01:13:32;;;;;;;2.90;0.45;;;;;;;;;;5283310;28;20025;-73
2023/01/04 01:16:08;;;;;;;2.53;0.40;;;;;;;;;;5283513;28;20024;-74
2023/01/04 01:18:40;;;;;;;2.45;0.40;;;;;;;;;;5282351;28;20074;-74
2023/01/04 01:21:13;;;;;;;5.45;0.40;;;;;;;;;;5283419;28;20025;-73
2023/01/04 01:23:44;;;;;;;2.38;0.50;;;;;;;;;;5282705;28;20403;-74
2023/01/04 01:26:17;;;;;;;2.80;0.40;;;;;;;;;;5282399;28;20028;-73
2023/01/04 01:28:48;;;;;;;2.80;0.40;;;;;;;;;;5282835;28;20107;-74
2023/01/04 01:31:21;;;;;;;1.38;0.30;;;;;;;;;;5282390;28;20112;-75
2023/01/04 01:33:53;;;;;;;1.65;0.30;;;;;;;;;;5283023;28;20427;-73
2023/01/04 01:36:25;;;;;;;1.55;0.30;;;;;;;;;;5282818;28;20013;-74
2023/01/04 01:38:56;;;;;;;2.80;0.40;;;;;;;;;;5281897;28;20094;-74
2023/01/04 01:41:29;;;;;;;2.85;0.43;;;;;;;;;;5282850;28;20017;-73
2023/01/04 01:44:05;;;;;;;1.48;0.40;;;;;;;;;;5282802;28;20012;-74
2023/01/04 01:46:43;;;;;;;2.45;0.40;;;;;;;;;;5281882;28;20024;-74
2023/01/04 01:49:32;;;;;;;1.65;0.30;;;;;;;;;;5282756;28;20048;-74
2023/01/04 01:52:06;;;;;;;2.67;0.45;;;;;;;;;;5282727;28;20032;-73
2023/01/04 01:54:39;;;;;;;2.45;0.40;;;;;;;;;;5281682;28;20024;-75
2023/01/04 01:57:12;;;;;;;2.47;0.30;;;;;;;;;;5282791;28;20020;-74
2023/01/04 01:59:45;;;;;;;0.95;0.30;;;;;;;;;;5281267;28;20032;-74
2023/01/04 02:02:16;;;;;;;0.82;0.22;;;;;;;;;;5282882;28;20099;-73
2023/01/04 02:04:48;;;;;;;2.13;0.30;;;;;;;;;;5282213;28;20095;-73
2023/01/04 02:07:21;;;;;;;1.50;0.40;;;;;;;;;;5281939;28;20349;-74
2023/01/04 02:09:53;;;;;;;2.35;0.70;;;;;;;;;;5282033;28;20410;-74
2023/01/04 02:12:24;;;;;;;0.50;0.20;;;;;;;;;;5282324;28;20070;-74
2023/01/04 02:14:55;;;;;;;1.45;0.30;;;;;;;;;;5281310;28;20122;-73
2023/01/04 02:17:32;;;;;;;1.40;0.30;;;;;;;;;;5282245;28;20460;-73
2023/01/04 02:20:27;;;;;;;1.27;0.30;;;;;;;;;;5282065;28;20025;-73
2023/01/04 02:23:04;;;;;;;1.02;0.20;;;;;;;;;;5275409;28;20032;-72
2023/01/04 02:25:53;;;;;;;0.68;0.30;;;;;;;;;;5281840;28;20031;-73
2023/01/04 02:28:43;;;;;;;1.77;0.30;;;;;;;;;;5281036;28;20025;-73
2023/01/04 02:31:30;;;;;;;0.88;0.20;;;;;;;;;;5282324;28;20055;-73
2023/01/04 02:34:07;;;;;;;1.15;0.20;;;;;;;;;;5282016;28;20048;-73
2023/01/04 02:36:52;;;;;;;0.75;0.20;;;;;;;;;;5280802;28;20032;-73
2023/01/04 02:39:38;;;;;;;1.38;0.20;;;;;;;;;;5281659;28;20025;-73
2023/01/04 02:42:14;;;;;;;0.68;0.20;;;;;;;;;;5281192;28;20044;-72
2023/01/04 02:45:00;;;;;;;1.63;0.30;;;;;;;;;;5281592;28;20020;-73
2023/01/04 02:50:34;;;;;;;0.57;0.20;;;;;;;;;;5280998;28;20053;-74
2023/01/04 02:53:08;;;;;;;0.63;0.20;;;;;;;;;;5281689;28;20367;-73
2023/01/04 02:56:09;;;;;;;1.17;0.20;;;;;;;;;;5282186;28;20320;-73
2023/01/04 02:58:52;;;;;;;0.45;0.13;;;;;;;;;;5251056;28;20040;-72
2023/01/04 03:07:31;;;;;;;1.33;0.20;;;;;;;;;;5289010;28;20024;-72
2023/01/04 03:10:11;;;;;;;1.10;0.20;;;;;;;;;;5287546;28;20036;-72
2023/01/04 03:12:45;;;;;;;1.58;0.20;;;;;;;;;;5288234;28;20017;-72
2023/01/04 03:15:24;;;;;;;0.95;0.22;;;;;;;;;;5288727;28;20028;-72
2023/01/04 03:17:57;;;;;;;1.45;0.15;;;;;;;;;;5287745;28;20082;-72
2023/01/04 03:20:29;;;;;;;1.02;0.10;;;;;;;;;;5288500;28;20041;-71
2023/01/04 03:37:39;;;;;;;1.85;0.30;;;;;;;;;;5288261;28;20395;-71
2023/01/04 03:49:24;;;;;;;1.60;0.30;;;;;;;;;;5287965;28;20068;-71
2023/01/04 03:51:57;;;;;;;1.25;0.50;;;;;;;;;;5287573;28;20047;-72
2023/01/04 03:54:38;;;;;;;1.48;0.30;;;;;;;;;;5288366;28;20077;-71
2023/01/04 03:57:10;;;;;;;0.77;0.20;;;;;;;;;;5288349;28;20383;-71
2023/01/04 03:59:46;;;;;;;1.23;0.30;;;;;;;;;;5287236;28;20068;-71
2023/01/04 04:02:21;;;;;;;0.63;0.20;;;;;;;;;;5288251;28;20051;-71
2023/01/04 04:10:32;;;;;;;0.60;0.20;;;;;;;;;;5284765;28;20045;-71
2023/01/04 04:13:03;;;;;;;1.10;0.22;;;;;;;;;;5283744;28;20021;-72
2023/01/04 04:15:35;;;;;;;1.30;0.20;;;;;;;;;;5284873;28;20029;-72
2023/01/04 04:18:06;;;;;;;0.50;0.20;;;;;;;;;;5284560;28;20013;-72
2023/01/04 04:20:38;;;;;;;1.58;0.40;;;;;;;;;;5283824;28;20456;-72
2023/01/04 04:23:09;;;;;;;1.63;0.40;;;;;;;;;;5284568;28;20027;-71
2023/01/04 04:25:40;;;;;;;1.15;0.30;;;;;;;;;;5283965;28;20391;-71
2023/01/04 04:28:11;;;;;;;1.30;0.40;;;;;;;;;;5284080;28;20090;-71
2023/01/04 04:30:42;;;;;;;0.95;0.30;;;;;;;;;;5284067;28;20036;-72
2023/01/04 04:33:13;;;;;;;1.42;0.30;;;;;;;;;;5284620;28;20032;-72
2023/01/04 04:35:48;;;;;;;1.77;0.35;;;;;;;;;;5283020;28;20017;-71
2023/01/04 04:38:20;;;;;;;1.45;0.40;;;;;;;;;;5284486;28;20024;-71
2023/01/04 04:43:41;;;;;;;2.03;0.40;;;;;;;;;;5283622;28;20024;-71
2023/01/04 04:46:13;;;;;;;1.02;0.40;;;;;;;;;;5284257;28;20028;-72
2023/01/04 04:48:44;;;;;;;1.10;0.40;;;;;;;;;;5283143;28;20499;-72
2023/01/04 04:51:15;;;;;;;2.88;0.50;;;;;;;;;;5284292;28;20036;-71
2023/01/04 04:53:47;;;;;;;1.38;0.32;;;;;;;;;;5283627;28;20012;-71
2023/01/04 04:56:18;;;;;;;2.60;0.50;;;;;;;;;;5283447;28;20028;-71
2023/01/04 04:58:49;;;;;;;2.10;0.40;;;;;;;;;;5283264;28;20035;-71
2023/01/04 05:01:20;;;;;;;1.27;0.40;;;;;;;;;;5283831;28;20020;-72
2023/01/04 05:03:52;;;;;;;2.95;0.40;;;;;;;;;;5283050;28;20021;-71
2023/01/04 05:06:23;;;;;;;0.98;0.30;;;;;;;;;;5283577;28;20077;-71
2023/01/04 05:08:54;;;;;;;1.55;0.50;;;;;;;;;;5283568;28;20100;-71
2023/01/04 05:14:15;;;;;;;1.40;0.35;;;;;;;;;;5284483;28;20396;-71
2023/01/04 05:16:46;;;;;;;1.38;0.40;;;;;;;;;;5282238;28;20028;-71
2023/01/04 05:19:17;;;;;;;1.63;0.38;;;;;;;;;;5283227;28;20019;-71
2023/01/04 05:21:49;;;;;;;1.10;0.32;;;;;;;;;;5282843;28;20474;-72
2023/01/04 05:24:20;;;;;;;1.80;0.32;;;;;;;;;;5282775;28;20029;-71
2023/01/04 05:26:51;;;;;;;1.58;0.40;;;;;;;;;;5283113;28;20024;-71
2023/01/04 05:32:14;;;;;;;1.83;0.30;;;;;;;;;;5251466;28;20020;-70
2023/01/04 05:34:45;;;;;;;1.25;0.35;;;;;;;;;;5282912;28;20379;-72
2023/01/04 05:37:16;;;;;;;2.17;0.30;;;;;;;;;;5283275;28;20027;-70
2023/01/04 05:39:47;;;;;;;1.65;0.40;;;;;;;;;;5281849;28;20100;-71
2023/01/04 05:42:24;;;;;;;1.92;0.30;;;;;;;;;;5283056;28;20024;-71
2023/01/04 05:44:56;;;;;;;1.85;0.32;;;;;;;;;;5282137;28;20020;-71
2023/01/04 05:47:28;;;;;;;2.35;0.30;;;;;;;;;;5282680;28;20099;-71
2023/01/04 05:49:59;;;;;;;2.58;0.30;;;;;;;;;;5282503;28;20491;-71
2023/01/04 05:52:30;;;;;;;1.60;0.40;;;;;;;;;;5281890;28;20088;-71
2023/01/04 05:55:02;;;;;;;1.70;0.30;;;;;;;;;;5282525;28;20062;-72
2023/01/04 05:57:33;;;;;;;0.85;0.20;;;;;;;;;;5282743;28;20103;-72
2023/01/04 06:00:05;;;;;;;0.60;0.30;;;;;;;;;;5281831;28;20028;-72
2023/01/04 06:02:36;;;;;;;1.60;0.30;;;;;;;;;;5282369;28;20020;-72
2023/01/04 06:05:09;;;;;;;2.13;0.30;;;;;;;;;;5282373;28;20428;-72
2023/01/04 06:07:40;;;;;;;1.75;0.35;;;;;;;;;;5281176;28;20030;-71
2023/01/04 06:10:12;;;;;;;2.10;0.40;;;;;;;;;;5282715;28;20036;-71
2023/01/04 06:12:44;;;;;;;2.40;0.50;;;;;;;;;;5281282;28;20028;-72
2023/01/04 06:15:15;;;;;;;2.97;0.30;;;;;;;;;;5282566;28;20040;-71
2023/01/04 06:17:46;;;;;;;1.45;0.28;;;;;;;;;;5281874;28;20067;-71
2023/01/04 06:20:18;;;;;;;1.85;0.45;;;;;;;;;;5281720;28;20103;-71
2023/01/04 06:22:49;;;;;;;1.08;0.20;;;;;;;;;;5282003;28;20028;-71
2023/01/04 06:25:20;;;;;;;0.82;0.20;;;;;;;;;;5282319;28;20034;-72
2023/01/04 06:27:51;;;;;;;1.23;0.40;;;;;;;;;;5281327;28;20270;-73
2023/01/04 06:30:22;;;;;;;1.13;0.20;;;;;;;;;;5281166;28;20028;-73
2023/01/04 06:32:53;;;;;;;3.35;0.30;;;;;;;;;;5282247;28;20020;-73
2023/01/04 06:35:25;;;;;;;1.67;0.30;;;;;;;;;;5281425;28;20024;-72
2023/01/04 06:37:56;;;;;;;2.30;0.20;;;;;;;;;;5281949;28;20031;-73
2023/01/04 06:40:27;;;;;;;1.42;0.30;;;;;;;;;;5281967;28;20021;-73
2023/01/04 06:42:58;;;;;;;0.90;0.25;;;;;;;;;;5280823;28;20024;-73
2023/01/04 06:45:29;;;;;;;0.75;0.20;;;;;;;;;;5282160;28;20013;-73
2023/01/04 06:48:01;;;;;;;1.95;0.20;;;;;;;;;;5280881;28;20020;-72
2023/01/04 06:50:32;;;;;;;0.73;0.20;;;;;;;;;;5281530;28;20052;-72
2023/01/04 06:53:03;;;;;;;1.05;0.20;;;;;;;;;;5281614;28;20139;-72
2023/01/04 06:55:34;;;;;;;0.50;0.20;;;;;;;;;;5280974;28;20035;-72
2023/01/04 06:58:05;;;;;;;2.55;0.22;;;;;;;;;;5281846;28;20040;-72
2023/01/04 07:00:37;;;;;;;0.93;0.20;;;;;;;;;;5281699;28;20126;-72
2023/01/04 07:03:08;;;;;;;1.38;0.30;;;;;;;;;;5280839;28;20021;-71
2023/01/04 07:05:39;;;;;;;0.98;0.30;;;;;;;;;;5281340;28;20230;-71
2023/01/04 07:08:11;;;;;;;0.77;0.10;;;;;;;;;;5282182;28;20016;-72
2023/01/04 07:10:42;;;;;;;0.50;0.10;;;;;;;;;;5280461;28;20392;-72
2023/01/04 07:13:14;;;;;;;0.82;0.20;;;;;;;;;;5281841;28;20078;-73
2023/01/04 07:15:45;;;;;;;1.42;0.30;;;;;;;;;;5281060;28;20375;-72
2023/01/04 07:18:16;;;;;;;2.22;0.40;;;;;;;;;;5280776;28;20382;-73
2023/01/04 07:20:47;;;;;;;2.28;0.20;;;;;;;;;;5281347;28;20021;-72
2023/01/04 07:23:19;;;;;;;1.20;0.30;;;;;;;;;;5281055;28;20024;-73
2023/01/04 07:25:50;;;;;;;0.47;0.20;;;;;;;;;;5281708;28;20043;-73
2023/01/04 07:31:15;;;;;;;3.70;0.40;;;;;;;;;;5252062;28;20654;-73
2023/01/04 07:33:50;;;;;;;0.52;0.10;;;;;;;;;;5281261;28;20066;-72
2023/01/04 07:36:21;;;;;;;0.95;0.10;;;;;;;;;;5281447;28;20107;-73
2023/01/04 07:38:52;;;;;;;1.38;0.13;;;;;;;;;;5280435;28;20142;-72
2023/01/04 07:41:23;;;;;;;0.50;0.10;;;;;;;;;;5281032;28;20031;-72
2023/01/04 07:43:54;;;;;;;1.23;0.20;;;;;;;;;;5285036;28;20031;-73
2023/01/04 07:46:26;;;;;;;1.77;0.30;;;;;;;;;;5284173;28;20017;-72
2023/01/04 07:48:58;;;;;;;1.08;0.20;;;;;;;;;;5284808;28;20505;-73
2023/01/04 07:51:32;;;;;;;1.98;0.38;;;;;;;;;;5284111;28;20036;-72
2023/01/04 07:54:03;;;;;;;1.25;0.28;;;;;;;;;;5284910;28;20352;-73
2023/01/04 07:56:35;;;;;;;4.25;0.20;;;;;;;;;;5284925;28;20024;-73
2023/01/04 07:59:07;;;;;;;2.42;0.20;;;;;;;;;;5283756;28;20158;-74
2023/01/04 08:01:38;;;;;;;1.15;0.20;;;;;;;;;;5284499;28;20047;-73
2023/01/04 08:04:10;;;;;;;1.58;0.40;;;;;;;;;;5284664;28;20021;-72
2023/01/04 08:06:42;;;;;;;3.13;0.60;;;;;;;;;;5283540;28;20028;-72
2023/01/04 08:09:14;;;;;;;1.20;0.20;;;;;;;;;;5284772;28;20480;-72
2023/01/04 08:11:45;;;;;;;3.20;0.22;;;;;;;;;;5283958;28;20028;-73
2023/01/04 08:14:16;;;;;;;2.78;0.20;;;;;;;;;;5283926;28;20012;-70
2023/01/04 08:16:47;;;;;;;4.53;0.30;;;;;;;;;;5284053;28;20094;-72
2023/01/04 08:19:19;;;;;;;1.60;0.30;;;;;;;;;;5284161;28;20115;-73
2023/01/04 08:21:51;;;;;;;2.05;0.40;;;;;;;;;;5284387;28;20016;-73
2023/01/04 08:24:22;;;;;;;2.08;0.15;;;;;;;;;;5284410;28;20066;-74
2023/01/04 08:26:53;;;;;;;2.53;0.30;;;;;;;;;;5282765;28;20020;-73
2023/01/04 08:29:24;;;;;;;2.47;0.20;;;;;;;;;;5284370;28;20119;-73
2023/01/04 08:31:55;;;;;;;2.28;0.20;;;;;;;;;;5284118;28;20012;-72
2023/01/04 08:34:27;;;;;;;1.38;0.20;;;;;;;;;;5283169;28;20024;-72
2023/01/04 08:36:58;;;;;;;1.33;0.20;;;;;;;;;;5283988;28;20467;-73
2023/01/04 08:39:34;;;;;;;2.85;0.30;;;;;;;;;;5283759;28;20464;-74
2023/01/04 08:42:05;;;;;;;3.33;0.30;;;;;;;;;;5283102;28;20024;-72
2023/01/04 08:44:36;;;;;;;3.38;0.30;;;;;;;;;;5283916;28;20411;-73
2023/01/04 08:47:08;;;;;;;4.10;0.30;;;;;;;;;;5283643;28;20675;-71
2023/01/04 08:49:39;;;;;;;5.53;0.30;;;;;;;;;;5278009;28;20540;-73
2023/01/04 08:52:11;;;;;;;3.50;0.30;;;;;;;;;;5283067;28;20440;-73
2023/01/04 08:54:43;;;;;;;2.65;0.28;;;;;;;;;;5281816;28;20017;-73
2023/01/04 08:57:15;;;;;;;3.05;0.30;;;;;;;;;;5283607;28;20029;-70
2023/01/04 08:59:47;;;;;;;1.98;0.20;;;;;;;;;;5282711;28;20020;-71
2023/01/04 09:02:25;;;;;;;3.25;0.20;;;;;;;;;;5282873;28;20023;-71
2023/01/04 09:04:59;;;;;;;1.20;0.20;;;;;;;;;;5283415;28;20024;-70
2023/01/04 09:07:31;;;;;;;2.08;0.20;;;;;;;;;;5283558;28;20282;-70
2023/01/04 09:10:02;;;;;;;1.70;0.50;;;;;;;;;;5282545;28;20026;-70
2023/01/04 09:12:33;;;;;;;1.23;0.20;;;;;;;;;;5283821;28;20058;-70
2023/01/04 09:15:04;;;;;;;2.40;0.20;;;;;;;;;;5283262;28;20107;-70
2023/01/04 09:17:36;;;;;;;1.90;0.25;;;;;;;;;;5282218;28;20099;-69
2023/01/04 09:20:07;;;;;;;2.63;0.40;;;;;;;;;;5283139;28;20066;-70
2023/01/04 09:22:38;;;;;;;0.88;0.20;;;;;;;;;;5282081;28;20048;-70
2023/01/04 09:25:09;;;;;;;3.40;0.20;;;;;;;;;;5283138;28;20464;-69
2023/01/04 09:27:40;;;;;;;2.05;0.25;;;;;;;;;;5282741;28;20753;-69
2023/01/04 09:30:12;;;;;;;1.42;0.20;;;;;;;;;;5282696;28;20033;-68
2023/01/04 09:32:43;;;;;;;1.27;0.20;;;;;;;;;;5282483;28;20070;-69
2023/01/04 09:35:14;;;;;;;2.72;0.30;;;;;;;;;;5283040;28;20102;-69
2023/01/04 09:37:46;;;;;;;1.55;0.17;;;;;;;;;;5281335;28;20107;-69
2023/01/04 09:40:19;;;;;;;2.65;0.43;;;;;;;;;;5283207;28;20345;-69
2023/01/04 09:42:51;;;;;;;2.85;0.40;;;;;;;;;;5282100;28;20039;-69
2023/01/04 09:45:24;;;;;;;0.73;0.20;;;;;;;;;;5281679;28;20098;-69
2023/01/04 09:47:58;;;;;;;0.98;0.20;;;;;;;;;;5282455;28;20371;-69
2023/01/04 09:50:40;;;;;;;3.00;0.20;;;;;;;;;;5282164;28;20496;-69
2023/01/04 09:53:17;;;;;;;2.20;0.30;;;;;;;;;;5282789;28;20438;-70
2023/01/04 09:55:49;;;;;;;3.30;0.30;;;;;;;;;;5282176;28;20479;-68
2023/01/04 09:58:26;;;;;;;1.95;0.30;;;;;;;;;;5281717;28;20013;-70
2023/01/04 10:01:15;;;;;;;2.15;0.40;;;;;;;;;;5282141;28;20074;-69
2023/01/04 10:03:52;;;;;;;1.58;0.30;;;;;;;;;;5281898;28;20021;-69
2023/01/04 10:06:23;;;;;;;3.80;0.30;;;;;;;;;;5280640;28;20111;-69
2023/01/04 10:08:57;;;;;;;2.70;0.55;;;;;;;;;;5276519;28;20470;-69
2023/01/04 10:11:28;;;;;;;1.80;0.30;;;;;;;;;;5281678;28;20035;-70
2023/01/04 10:14:18;;;;;;;1.75;0.35;;;;;;;;;;5280982;28;20013;-69
2023/01/04 10:16:55;;;;;;;2.22;0.50;;;;;;;;;;5280859;28;20032;-69
2023/01/04 10:19:42;;;;;;;2.97;0.38;;;;;;;;;;5280863;28;20016;-69
2023/01/04 10:22:24;;;;;;;2.05;0.45;;;;;;;;;;5282134;28;20510;-69
2023/01/04 10:25:00;;;;;;;1.40;0.30;;;;;;;;;;5281916;28;20032;-69
2023/01/04 10:27:46;;;;;;;2.95;0.60;;;;;;;;;;5280944;28;20024;-69
2023/01/04 10:30:32;;;;;;;2.35;0.30;;;;;;;;;;5281938;28;20115;-68
2023/01/04 10:33:10;;;;;;;4.20;0.70;;;;;;;;;;5280878;28;20509;-71
2023/01/04 10:35:44;;;;;;;1.60;0.30;;;;;;;;;;5281494;28;20024;-70
2023/01/04 10:38:27;;;;;;;3.33;0.73;;;;;;;;;;5281870;28;20017;-71
2023/01/04 10:41:01;;;;;;;2.10;0.40;;;;;;;;;;5280961;28;20468;-70
2023/01/04 10:43:40;;;;;;;3.15;0.40;;;;;;;;;;5281512;28;20024;-71
2023/01/04 10:46:17;;;;;;;1.60;0.30;;;;;;;;;;5281813;28;20020;-70
2023/01/04 10:48:52;;;;;;;2.95;0.40;;;;;;;;;;5280089;28;20048;-70
2023/01/04 10:51:28;;;;;;;3.35;0.60;;;;;;;;;;5281463;28;20034;-71
2023/01/04 10:54:08;;;;;;;3.50;0.40;;;;;;;;;;5280794;28;20075;-71
2023/01/04 10:56:44;;;;;;;2.97;0.43;;;;;;;;;;5280331;28;20016;-72
2023/01/04 10:59:35;;;;;;;1.42;0.25;;;;;;;;;;5281892;28;20013;-71
2023/01/04 11:02:16;;;;;;;2.90;0.30;;;;;;;;;;5269768;28;20348;-72
2023/01/04 11:05:12;;;;;;;1.42;0.20;;;;;;;;;;5281277;28;20066;-71
2023/01/04 11:07:45;;;;;;;1.25;0.22;;;;;;;;;;5273131;28;20024;-69
2023/01/04 11:10:19;;;;;;;1.95;0.30;;;;;;;;;;5280868;28;20020;-72
2023/01/04 11:12:50;;;;;;;1.15;0.25;;;;;;;;;;5281027;28;20077;-72
2023/01/04 11:15:22;;;;;;;1.83;0.47;;;;;;;;;;5280347;28;20455;-74
2023/01/04 11:17:53;;;;;;;1.92;0.30;;;;;;;;;;5283920;28;20025;-72
2023/01/04 11:20:24;;;;;;;2.75;0.20;;;;;;;;;;5285571;28;20067;-72
2023/01/04 11:22:59;;;;;;;1.25;0.20;;;;;;;;;;5284293;28;20024;-73
2023/01/04 11:25:34;;;;;;;1.77;0.30;;;;;;;;;;5285515;28;20025;-73
2023/01/04 11:28:14;;;;;;;0.35;0.10;;;;;;;;;;5285377;28;20081;-72
2023/01/04 11:30:59;;;;;;;0.52;0.20;;;;;;;;;;5284352;28;20033;-71
2023/01/04 11:33:49;;;;;;;0.93;0.10;;;;;;;;;;5285412;28;20012;-75
2023/01/04 11:36:32;;;;;;;0.88;0.17;;;;;;;;;;5284583;28;20025;-72
2023/01/04 11:39:17;;;;;;;1.63;0.10;;;;;;;;;;5285336;28;20030;-73
2023/01/04 11:41:57;;;;;;;0.30;0.10;;;;;;;;;;5284981;28;20017;-74
2023/01/04 11:44:29;;;;;;;0.93;0.10;;;;;;;;;;5284405;28;20357;-73
2023/01/04 11:47:09;;;;;;;0.25;0.10;;;;;;;;;;5284998;28;20028;-73
2023/01/04 11:49:40;;;;;;;0.47;0.10;;;;;;;;;;5284660;28;20052;-73
2023/01/04 11:52:27;;;;;;;0.90;0.10;;;;;;;;;;5284572;28;20093;-73
2023/01/04 11:55:22;;;;;;;0.85;0.05;;;;;;;;;;5284799;28;20016;-73
2023/01/04 11:58:10;;;;;;;0.50;0.00;;;;;;;;;;5284208;28;20626;-73
2023/01/04 12:00:55;;;;;;;0.77;0.10;;;;;;;;;;5284601;28;20472;-74
2023/01/04 12:03:44;;;;;;;0.20;0.00;;;;;;;;;;5284686;28;20072;-74
2023/01/04 12:06:21;;;;;;;0.85;0.10;;;;;;;;;;5284452;28;20017;-74
2023/01/04 12:08:52;;;;;;;0.32;0.00;;;;;;;;;;5284490;28;20024;-73
2023/01/04 12:11:29;;;;;;;0.57;0.10;;;;;;;;;;5283549;28;20039;-73
2023/01/04 12:14:02;;;;;;;0.60;0.00;;;;;;;;;;5284216;28;20020;-72
2023/01/04 12:16:41;;;;;;;1.08;0.10;;;;;;;;;;5284672;28;20024;-73
2023/01/04 12:19:16;;;;;;;0.00;0.00;;;;;;;;;;5284083;28;20368;-72
2023/01/04 12:21:48;;;;;;;0.30;0.00;;;;;;;;;;5284070;28;20099;-72
2023/01/04 12:24:21;;;;;;;0.73;0.00;;;;;;;;;;5284514;28;20071;-73
2023/01/04 12:26:52;;;;;;;0.32;0.00;;;;;;;;;;5283414;28;20024;-72
2023/01/04 12:29:24;;;;;;;0.20;0.00;;;;;;;;;;5283184;28;20019;-72
2023/01/04 12:32:04;;;;;;;0.08;0.00;;;;;;;;;;5284085;28;20060;-73
2023/01/04 12:34:39;;;;;;;0.30;0.00;;;;;;;;;;5283145;28;20274;-72
2023/01/04 12:37:30;;;;;;;0.40;0.00;;;;;;;;;;5283983;28;20035;-72
2023/01/04 12:40:02;;;;;;;0.43;0.00;;;;;;;;;;5283117;28;20028;-72
2023/01/04 12:42:33;;;;;;;0.45;0.00;;;;;;;;;;5283918;28;20027;-72
2023/01/04 12:45:11;;;;;;;0.00;0.00;;;;;;;;;;5283775;28;20020;-73
2023/01/04 12:50:52;;;;;;;0.13;0.00;;;;;;;;;;5283557;28;20056;-72
2023/01/04 12:53:42;;;;;;;0.15;0.00;;;;;;;;;;5283482;28;20025;-73
2023/01/04 12:56:13;;;;;;;0.13;0.10;;;;;;;;;;5284155;28;20025;-71
2023/01/04 12:59:03;;;;;;;0.13;0.10;;;;;;;;;;5283533;28;20068;-72
2023/01/04 13:01:35;;;;;;;0.20;0.10;;;;;;;;;;5282807;28;20017;-72
2023/01/04 13:04:25;;;;;;;0.10;0.00;;;;;;;;;;5283479;28;20089;-72
2023/01/04 13:07:00;;;;;;;0.30;0.10;;;;;;;;;;5283569;28;20016;-72
2023/01/04 13:09:32;;;;;;;0.22;0.00;;;;;;;;;;5282882;28;20476;-72
2023/01/04 13:12:21;;;;;;;1.65;0.00;;;;;;;;;;5283309;28;20036;-72
2023/01/04 13:14:56;;;;;;;0.10;0.10;;;;;;;;;;5282142;28;20331;-74
2023/01/04 13:17:28;;;;;;;0.10;0.08;;;;;;;;;;5283359;28;20091;-74
2023/01/04 13:20:05;;;;;;;0.43;0.10;;;;;;;;;;5283068;28;20021;-71
2023/01/04 13:22:36;;;;;;;0.30;0.10;;;;;;;;;;5278192;28;20509;-72
2023/01/04 13:25:11;;;;;;;0.30;0.10;;;;;;;;;;5282419;28;20024;-72
2023/01/04 13:27:56;;;;;;;0.47;0.10;;;;;;;;;;5282180;28;20028;-73
2023/01/04 13:30:37;;;;;;;0.15;0.00;;;;;;;;;;5282124;28;20491;-72
2023/01/04 13:33:16;;;;;;;0.17;0.03;;;;;;;;;;5282639;28;20056;-73
2023/01/04 13:36:01;;;;;;;0.10;0.10;;;;;;;;;;5281569;28;20027;-71
2023/01/04 13:38:33;;;;;;;4.05;0.50;;;;;;;;;;5282615;28;20422;-72
2023/01/04 13:41:17;;;;;;;0.47;0.10;;;;;;;;;;5282348;28;20036;-72
2023/01/04 13:43:54;;;;;;;0.65;0.10;;;;;;;;;;5281894;28;20024;-72
2023/01/04 13:46:26;;;;;;;0.40;0.17;;;;;;;;;;5282462;28;20020;-72
2023/01/04 13:48:59;;;;;;;0.40;0.20;;;;;;;;;;5282371;28;20510;-72
2023/01/04 13:51:33;;;;;;;0.40;0.20;;;;;;;;;;5281256;28;20035;-73
2023/01/04 13:54:15;;;;;;;0.30;0.20;;;;;;;;;;5282111;28;20039;-71
2023/01/04 13:56:48;;;;;;;0.50;0.20;;;;;;;;;;5281941;28;20021;-72
2023/01/04 13:59:19;;;;;;;1.00;0.10;;;;;;;;;;5282232;28;20023;-71
2023/01/04 14:01:51;;;;;;;1.05;0.20;;;;;;;;;;5282109;28;20033;-72
2023/01/04 14:04:27;;;;;;;0.60;0.30;;;;;;;;;;5281320;28;20024;-72
2023/01/04 14:06:59;;;;;;;0.57;0.10;;;;;;;;;;5282221;28;20027;-72
2023/01/04 14:09:34;;;;;;;0.13;0.10;;;;;;;;;;5282033;28;20020;-71
2023/01/04 14:12:25;;;;;;;0.30;0.20;;;;;;;;;;5280960;28;20033;-71
2023/01/04 14:14:59;;;;;;;1.15;0.28;;;;;;;;;;5281804;28;20021;-71
2023/01/04 14:17:34;;;;;;;0.75;0.40;;;;;;;;;;5282068;28;20107;-71
2023/01/04 14:20:05;;;;;;;0.98;0.50;;;;;;;;;;5280832;28;20023;-71
2023/01/04 14:22:39;;;;;;;0.93;0.40;;;;;;;;;;5281436;28;20484;-72
2023/01/04 14:25:28;;;;;;;0.80;0.40;;;;;;;;;;5281045;28;20025;-72
2023/01/04 14:28:18;;;;;;;0.50;0.40;;;;;;;;;;5281997;28;20020;-71
2023/01/04 14:30:51;;;;;;;0.45;0.38;;;;;;;;;;5281311;28;20547;-71
2023/01/04 14:33:31;;;;;;;1.10;0.40;;;;;;;;;;5280464;28;20517;-72
2023/01/04 14:36:05;;;;;;;1.30;0.57;;;;;;;;;;5281464;28;20020;-72
2023/01/04 14:38:55;;;;;;;1.33;0.57;;;;;;;;;;5281984;28;20021;-72
2023/01/04 14:41:34;;;;;;;2.05;0.70;;;;;;;;;;5280728;28;20020;-72
2023/01/04 14:44:10;;;;;;;2.75;0.90;;;;;;;;;;5281286;28;20021;-72
2023/01/04 14:46:45;;;;;;;2.03;0.70;;;;;;;;;;5280989;28;20059;-73
2023/01/04 14:49:18;;;;;;;1.80;0.70;;;;;;;;;;5282204;28;20071;-73
2023/01/04 14:51:51;;;;;;;1.95;0.82;;;;;;;;;;5280472;28;20029;-73
2023/01/04 14:54:23;;;;;;;2.53;0.88;;;;;;;;;;5280570;28;20081;-73
2023/01/04 14:56:54;;;;;;;2.30;0.60;;;;;;;;;;5281300;28;20016;-73
2023/01/04 14:59:27;;;;;;;2.13;0.75;;;;;;;;;;5281281;28;20066;-73
2023/01/04 15:01:58;;;;;;;2.60;0.90;;;;;;;;;;5280229;28;20123;-73
2023/01/04 15:04:29;;;;;;;5.43;0.82;;;;;;;;;;5280986;28;20093;-72
2023/01/04 15:07:00;;;;;;;4.63;0.82;;;;;;;;;;5280279;28;20025;-70
2023/01/04 15:09:32;;;;;;;5.97;1.10;;;;;;;;;;5280127;28;20086;-72
2023/01/04 15:12:03;;;;;;;3.00;0.90;;;;;;;;;;5280632;28;20334;-71
2023/01/04 15:14:34;;;;;;;3.60;0.90;;;;;;;;;;5278671;28;20020;-71
2023/01/04 15:17:05;;;;;;;3.67;1.45;;;;;;;;;;5280414;28;20021;-71
2023/01/04 15:19:37;;;;;;;4.82;0.82;;;;;;;;;;5280558;28;20417;-70
2023/01/04 15:22:08;;;;;;;3.53;0.90;;;;;;;;;;5279763;28;20082;-70
2023/01/04 15:24:39;;;;;;;5.13;0.90;;;;;;;;;;5280407;28;20364;-70
2023/01/04 15:27:10;;;;;;;5.45;0.70;;;;;;;;;;5280909;28;20312;-70
2023/01/04 15:29:41;;;;;;;5.95;1.00;;;;;;;;;;5279347;28;20024;-70
2023/01/04 15:32:13;;;;;;;6.68;1.05;;;;;;;;;;5280488;28;20029;-70
2023/01/04 15:34:44;;;;;;;3.97;0.80;;;;;;;;;;5280443;28;20055;-72
2023/01/04 15:37:15;;;;;;;4.28;1.13;;;;;;;;;;5280231;28;20078;-70
2023/01/04 15:39:47;;;;;;;6.50;0.88;;;;;;;;;;5280414;28;20020;-69
2023/01/04 15:45:09;;;;;;;8.32;0.95;;;;;;;;;;5280804;28;20056;-70
2023/01/04 15:47:40;;;;;;;4.70;0.90;;;;;;;;;;5279992;28;20049;-70
2023/01/04 15:50:11;;;;;;;3.67;0.70;;;;;;;;;;5279702;28;20080;-70
2023/01/04 15:52:42;;;;;;;5.20;0.90;;;;;;;;;;5279727;28;20052;-70
2023/01/04 15:55:14;;;;;;;6.95;1.00;;;;;;;;;;5280484;28;20024;-70
2023/01/04 15:57:45;;;;;;;5.65;0.82;;;;;;;;;;5279357;28;20024;-70
2023/01/04 16:00:16;;;;;;;7.72;1.25;;;;;;;;;;5281036;28;20040;-70
2023/01/04 16:02:48;;;;;;;10.30;1.33;;;;;;;;;;5280815;28;20037;-70
2023/01/04 16:05:19;;;;;;;6.03;0.90;;;;;;;;;;5283739;28;20025;-70
2023/01/04 16:07:50;;;;;;;5.65;0.88;;;;;;;;;;5283802;28;20274;-70
2023/01/04 16:10:22;;;;;;;5.97;1.13;;;;;;;;;;5284199;28;20115;-70
2023/01/04 16:12:53;;;;;;;6.90;1.33;;;;;;;;;;5283458;28;20286;-70
2023/01/04 16:15:24;;;;;;;7.60;1.00;;;;;;;;;;5283942;28;20357;-71
2023/01/04 16:17:55;;;;;;;8.88;2.45;;;;;;;;;;5283176;28;20020;-70
2023/01/04 16:20:26;;;;;;;4.60;0.95;;;;;;;;;;5277096;28;20461;-70